Time;durP1;ratioP1;P1;durP2;ratioP2;P2;SDS_P1;SDS_P2;PMS_P1;PMS_P2;Temp;Humidity;BMP_temperature;BMP_pressure;BME280_temperature;BME280_humidity;BME280_pressure;Samples;Min_cycle;Max_cycle;Signal;HPM_P1;HPM_P2
2022/04/21 00:34:05;;;;;;;10.00;4.97;;;;;;;12.61;47.01;101285.31;5109089;27;20081;-61
2022/04/21 00:36:30;;;;;;;7.57;4.63;;;;;;;12.58;48.56;101289.69;5075958;28;20393;-60
2022/04/21 00:38:56;;;;;;;8.77;4.55;;;;;;;12.59;48.22;101284.44;5075389;28;20059;-60
2022/04/21 00:41:21;;;;;;;8.95;4.80;;;;;;;12.58;47.98;101279.09;5075795;28;20082;-60
2022/04/21 00:43:46;;;;;;;6.57;4.70;;;;;;;12.53;48.51;101285.22;5075344;28;20080;-61
2022/04/21 00:46:19;;;;;;;6.63;4.60;;;;;;;12.53;48.32;101287.00;5075746;28;20044;-61
2022/04/21 00:48:45;;;;;;;6.97;4.75;;;;;;;12.52;48.01;101287.88;5075559;28;20033;-61
2022/04/21 00:51:11;;;;;;;8.23;4.80;;;;;;;12.51;48.31;101281.69;5075615;28;20029;-61
2022/04/21 00:53:39;;;;;;;7.00;4.70;;;;;;;12.37;48.63;101271.81;5075427;28;20165;-61
2022/04/21 00:56:06;;;;;;;7.60;4.88;;;;;;;12.29;48.73;101277.06;5075731;28;20029;-61
2022/04/21 00:58:33;;;;;;;7.55;4.68;;;;;;;12.26;49.00;101277.91;5075405;28;20036;-61
2022/04/21 01:00:59;;;;;;;8.10;4.85;;;;;;;12.14;49.35;101282.19;5075572;28;20021;-61
2022/04/21 01:03:25;;;;;;;6.53;4.72;;;;;;;12.07;49.75;101277.66;5075471;28;20393;-61
2022/04/21 01:05:51;;;;;;;7.20;5.10;;;;;;;12.03;49.29;101271.44;5075355;28;20021;-61
2022/04/21 01:08:16;;;;;;;10.77;4.97;;;;;;;12.03;50.06;101282.03;5075351;28;20491;-61
2022/04/21 01:10:42;;;;;;;8.43;4.80;;;;;;;11.90;50.33;101278.34;5075212;28;20130;-61
2022/04/21 01:13:10;;;;;;;12.10;5.00;;;;;;;11.87;50.35;101288.94;5074994;28;20020;-61
2022/04/21 01:15:37;;;;;;;7.28;4.78;;;;;;;11.81;50.67;101288.81;5074999;28;20021;-62
2022/04/21 01:18:05;;;;;;;9.82;4.97;;;;;;;11.76;50.54;101285.22;5075020;28;20043;-61
2022/04/21 01:20:32;;;;;;;7.50;4.90;;;;;;;11.71;50.70;101282.50;5074972;28;20021;-61
2022/04/21 01:22:58;;;;;;;6.50;4.70;;;;;;;11.79;50.77;101275.56;5075104;28;20476;-61
2022/04/21 01:25:24;;;;;;;8.55;5.13;;;;;;;11.81;50.41;101280.84;5074961;28;20033;-61
2022/04/21 01:27:56;;;;;;;11.20;5.30;;;;;;;11.83;50.42;101278.28;5074651;28;20024;-61
2022/04/21 01:30:21;;;;;;;8.88;5.05;;;;;;;11.77;50.29;101266.69;5074772;28;20035;-61
2022/04/21 01:32:51;;;;;;;9.45;5.07;;;;;;;11.74;50.49;101277.25;5075145;28;20025;-61
2022/04/21 01:35:18;;;;;;;9.52;5.40;;;;;;;11.64;51.29;101275.34;5074563;28;20041;-61
2022/04/21 01:43:11;;;;;;;10.02;5.57;;;;;;;11.47;51.49;101271.56;5075018;28;20457;-61
2022/04/21 01:45:37;;;;;;;8.43;5.47;;;;;;;11.41;51.77;101264.44;5074977;28;20100;-61
2022/04/21 01:48:03;;;;;;;8.05;5.00;;;;;;;11.47;51.26;101268.94;5074575;28;20028;-61
2022/04/21 01:50:30;;;;;;;8.35;5.43;;;;;;;11.51;51.06;101261.06;5074392;28;20048;-61
2022/04/21 01:52:58;;;;;;;8.43;5.22;;;;;;;11.50;51.38;101267.22;5074210;28;20020;-61
2022/04/21 01:55:24;;;;;;;7.03;5.10;;;;;;;11.49;51.15;101262.81;5074248;28;20040;-61
2022/04/21 01:57:49;;;;;;;10.85;5.35;;;;;;;11.56;51.12;101268.16;5056477;28;20021;-61
2022/04/21 02:00:15;;;;;;;8.63;5.30;;;;;;;11.60;50.92;101270.88;5074166;28;20055;-61
2022/04/21 02:02:40;;;;;;;8.82;5.40;;;;;;;11.58;51.34;101269.09;5074444;28;20016;-61
2022/04/21 02:05:06;;;;;;;8.88;5.20;;;;;;;11.56;50.99;101270.81;5073988;28;20165;-61
2022/04/21 02:07:31;;;;;;;8.68;5.13;;;;;;;11.52;51.05;101269.91;5074144;28;20021;-62
2022/04/21 02:09:57;;;;;;;9.77;4.90;;;;;;;11.49;50.88;101272.50;5073928;28;20367;-62
2022/04/21 02:12:24;;;;;;;9.23;5.00;;;;;;;11.39;51.46;101266.22;5073724;28;20024;-61
2022/04/21 02:14:50;;;;;;;9.00;5.20;;;;;;;11.36;51.66;101273.22;5073925;28;20421;-61
2022/04/21 02:17:16;;;;;;;11.82;5.25;;;;;;;11.27;51.69;101266.91;5073879;28;20032;-61
2022/04/21 02:19:41;;;;;;;8.90;5.32;;;;;;;11.23;51.86;101259.78;5073892;28;20032;-61
2022/04/21 02:22:07;;;;;;;7.85;5.28;;;;;;;11.23;52.07;101272.13;5073792;28;20017;-61
2022/04/21 02:24:33;;;;;;;7.60;5.15;;;;;;;11.21;52.26;101271.22;5073712;28;20023;-62
2022/04/21 02:26:58;;;;;;;8.82;4.85;;;;;;;11.13;52.29;101268.44;5073876;28;20100;-61
2022/04/21 02:29:23;;;;;;;10.10;5.03;;;;;;;11.15;52.00;101274.66;5073728;28;20073;-61
2022/04/21 02:31:49;;;;;;;7.22;5.13;;;;;;;11.08;52.34;101269.25;5073653;28;20367;-61
2022/04/21 02:34:15;;;;;;;8.43;4.93;;;;;;;11.01;52.67;101266.53;5053564;28;20500;-61
2022/04/21 02:36:41;;;;;;;7.57;5.10;;;;;;;10.91;52.67;101264.56;5053551;28;20079;-61
2022/04/21 02:39:06;;;;;;;8.35;5.18;;;;;;;10.89;52.72;101265.44;5053426;28;20023;-61
2022/04/21 02:41:31;;;;;;;7.68;4.88;;;;;;;10.91;52.56;101268.97;5053503;28;20021;-61
2022/04/21 02:43:57;;;;;;;8.13;4.93;;;;;;;10.85;52.70;101260.97;5053575;28;20500;-61
2022/04/21 02:46:27;;;;;;;7.32;4.88;;;;;;;10.78;53.10;101260.84;5053193;28;20070;-61
2022/04/21 02:48:55;;;;;;;9.57;4.95;;;;;;;10.79;53.08;101269.66;5053064;28;20025;-61
2022/04/21 02:51:21;;;;;;;9.60;4.88;;;;;;;10.72;53.33;101266.03;5053523;28;20035;-61
2022/04/21 02:59:15;;;;;;;9.38;4.78;;;;;;;10.67;53.08;101261.56;5053311;28;20120;-61
2022/04/21 03:01:40;;;;;;;9.30;4.78;;;;;;;10.62;53.26;101255.28;5053192;28;20103;-61
2022/04/21 03:04:05;;;;;;;7.25;4.75;;;;;;;10.63;54.19;101255.31;5053112;28;20028;-61
2022/04/21 03:06:31;;;;;;;7.45;4.85;;;;;;;10.52;53.83;101249.84;5053073;28;20447;-61
2022/04/21 03:08:56;;;;;;;8.65;5.00;;;;;;;10.47;54.27;101254.16;5053155;28;20127;-61
2022/04/21 03:11:22;;;;;;;8.20;4.85;;;;;;;10.40;54.39;101259.28;5053175;28;20125;-61
2022/04/21 03:13:47;;;;;;;8.55;5.03;;;;;;;10.38;54.65;101253.09;5053002;28;20057;-61
2022/04/21 03:16:13;;;;;;;6.13;4.72;;;;;;;10.35;54.74;101258.31;5053040;28;20032;-61
2022/04/21 03:18:38;;;;;;;10.60;5.30;;;;;;;10.26;55.10;101248.47;5052910;28;20025;-61
2022/04/21 03:26:31;;;;;;;8.63;5.60;;;;;;;10.09;55.43;101248.13;5053283;28;20445;-61
2022/04/21 03:28:56;;;;;;;10.40;5.25;;;;;;;10.08;55.55;101246.34;5052973;28;20013;-61
2022/04/21 03:31:23;;;;;;;8.65;5.25;;;;;;;10.09;55.56;101250.78;5052940;28;20108;-61
2022/04/21 03:33:55;;;;;;;9.38;4.97;;;;;;;10.11;55.67;101250.81;5052449;28;20083;-62
2022/04/21 03:36:21;;;;;;;11.60;5.50;;;;;;;9.98;55.90;101247.06;5052685;28;20049;-61
2022/04/21 03:38:46;;;;;;;8.73;5.57;;;;;;;9.99;55.65;101252.34;5053204;28;20488;-61
2022/04/21 03:41:12;;;;;;;8.73;5.60;;;;;;;10.06;55.59;101255.09;5052888;28;20470;-61
2022/04/21 03:43:37;;;;;;;11.02;6.45;;;;;;;10.01;55.79;101252.38;5052863;28;20087;-61
2022/04/21 03:46:03;;;;;;;8.68;5.28;;;;;;;10.04;55.79;101261.25;5052943;28;20021;-61
2022/04/21 03:48:29;;;;;;;9.10;5.53;;;;;;;10.03;55.42;101266.50;5034740;28;20029;-62
2022/04/21 03:50:55;;;;;;;8.05;5.53;;;;;;;9.97;55.53;101263.72;5052774;28;20033;-61
2022/04/21 03:53:21;;;;;;;9.35;5.20;;;;;;;9.93;55.52;101265.41;5034954;28;20024;-61
2022/04/21 03:55:49;;;;;;;9.80;5.90;;;;;;;9.96;55.30;101267.22;5052649;28;20024;-61
2022/04/21 03:58:14;;;;;;;10.75;5.60;;;;;;;10.00;55.43;101269.97;5053172;28;20042;-61
2022/04/21 04:00:40;;;;;;;10.88;5.78;;;;;;;9.96;55.32;101267.22;5056566;28;20037;-61
2022/04/21 04:03:06;;;;;;;8.85;5.55;;;;;;;9.93;55.53;101269.81;5056375;28;20107;-61
2022/04/21 04:05:31;;;;;;;10.50;5.53;;;;;;;9.92;55.12;101282.13;5056250;28;20056;-61
2022/04/21 04:10:53;;;;;;;7.85;5.57;;;;;;;9.92;55.36;101270.66;5056631;28;20044;-61
2022/04/21 04:13:24;;;;;;;8.55;5.57;;;;;;;9.89;54.69;101268.88;5056215;28;20040;-61
2022/04/21 04:15:51;;;;;;;12.13;5.60;;;;;;;9.85;55.46;101266.13;5056139;28;20108;-61
2022/04/21 04:18:21;;;;;;;9.35;5.78;;;;;;;9.85;55.46;101280.22;5056133;28;20032;-61
2022/04/21 04:20:46;;;;;;;11.23;5.97;;;;;;;9.85;55.31;101272.31;5056421;28;20059;-61
2022/04/21 04:23:19;;;;;;;9.07;5.75;;;;;;;9.78;55.68;101265.13;5056065;28;20108;-61
2022/04/21 04:25:44;;;;;;;;;;;;;;;9.95;53.75;101265.47;5056409;28;20052;-61
2022/04/21 04:28:10;;;;;;;7.90;5.20;;;;;;;9.83;55.26;101265.22;5055914;28;20005;-61
2022/04/21 04:30:38;;;;;;;8.10;5.80;;;;;;;9.79;54.92;101275.69;5055191;28;20043;-61
2022/04/21 04:33:04;;;;;;;7.65;5.28;;;;;;;9.82;55.44;101266.06;5055360;28;20062;-61
2022/04/21 04:35:31;;;;;;;10.02;5.57;;;;;;;9.77;55.39;101269.50;5067128;28;20501;-61
2022/04/21 04:37:56;;;;;;;9.48;5.55;;;;;;;9.70;55.69;101264.94;5075517;28;20104;-61
2022/04/21 04:40:24;;;;;;;9.95;5.68;;;;;;;9.70;55.27;101270.22;5075539;28;20024;-61
2022/04/21 04:42:50;;;;;;;9.65;5.22;;;;;;;9.76;55.05;101275.66;5075113;28;20032;-61
2022/04/21 04:47:59;;;;;;;16.10;6.55;;;;;;;9.73;55.80;101274.69;5076368;28;20499;-61
2022/04/21 04:50:25;;;;;;;10.50;5.43;;;;;;;9.72;55.12;101279.09;5076327;28;20067;-61
2022/04/21 04:52:56;;;;;;;8.95;5.65;;;;;;;9.74;55.33;101282.63;5075894;28;20028;-61
2022/04/21 04:55:22;;;;;;;9.35;5.35;;;;;;;9.78;55.04;101276.56;5075051;28;20089;-61
2022/04/21 04:57:49;;;;;;;9.13;5.63;;;;;;;9.84;55.03;101282.81;5074637;28;20428;-61
2022/04/21 05:00:16;;;;;;;10.77;6.00;;;;;;;9.87;55.26;101285.53;5074894;28;20107;-61
2022/04/21 05:02:41;;;;;;;8.00;5.53;;;;;;;9.93;54.94;101278.59;5074845;28;20108;-61
2022/04/21 05:05:08;;;;;;;10.57;5.63;;;;;;;9.95;54.89;101278.66;5074624;28;20441;-61
2022/04/21 05:07:35;;;;;;;8.70;5.57;;;;;;;9.96;54.58;101277.78;5074745;28;20052;-61
2022/04/21 05:10:01;;;;;;;9.68;6.05;;;;;;;10.00;54.88;101282.28;5073726;28;20074;-61
2022/04/21 05:12:26;;;;;;;10.65;5.65;;;;;;;10.06;54.51;101278.84;5074502;28;20024;-61
2022/04/21 05:14:52;;;;;;;9.35;6.00;;;;;;;10.17;54.32;101283.50;5074342;28;20059;-61
2022/04/21 05:17:18;;;;;;;8.27;5.50;;;;;;;10.30;53.88;101282.00;5074779;28;20420;-61
2022/04/21 05:19:44;;;;;;;9.55;5.70;;;;;;;10.41;53.39;101272.53;5074469;28;20021;-61
2022/04/21 05:22:12;;;;;;;9.20;5.20;;;;;;;10.51;53.48;101266.56;5074519;28;20032;-61
2022/04/21 05:24:38;;;;;;;7.53;5.30;;;;;;;10.56;53.35;101264.00;5074556;28;20112;-61
2022/04/21 05:27:04;;;;;;;10.60;6.03;;;;;;;10.71;52.86;101269.56;5074237;28;20167;-61
2022/04/21 05:32:18;;;;;;;8.18;6.00;;;;;;;10.88;52.25;101264.56;5074611;28;20090;-61
2022/04/21 05:34:44;;;;;;;9.40;6.03;;;;;;;10.98;52.41;101271.75;5050190;28;20040;-61
2022/04/21 05:37:10;;;;;;;10.88;5.75;;;;;;;11.09;51.88;101276.31;5054176;28;20055;-61
2022/04/21 05:39:36;;;;;;;10.00;6.43;;;;;;;11.16;52.02;101268.50;5054183;28;20025;-61
2022/04/21 05:42:05;;;;;;;10.23;6.53;;;;;;;11.27;51.56;101268.66;5053800;28;20029;-62
2022/04/21 05:44:31;;;;;;;9.35;6.18;;;;;;;11.43;50.98;101281.22;5053972;28;20079;-62
2022/04/21 05:47:02;;;;;;;12.07;6.28;;;;;;;11.46;51.56;101269.81;5054076;28;20037;-61
2022/04/21 05:49:29;;;;;;;9.55;5.70;;;;;;;11.57;50.78;101276.16;5036115;28;20029;-61
2022/04/21 05:52:01;;;;;;;10.07;6.10;;;;;;;11.70;50.44;101278.09;5053703;28;20028;-61
2022/04/21 05:54:27;;;;;;;;;;;;;;;11.90;50.25;101277.47;5054053;28;20087;-62
2022/04/21 05:56:52;;;;;;;8.73;6.22;;;;;;;11.85;50.24;101276.53;5053426;28;19916;-61
2022/04/21 05:59:18;;;;;;;14.57;6.20;;;;;;;11.95;50.19;101266.09;5053725;28;20036;-61
2022/04/21 06:01:43;;;;;;;11.82;5.97;;;;;;;12.00;50.00;101269.66;5053512;28;20079;-61
2022/04/21 06:04:09;;;;;;;12.23;6.40;;;;;;;12.03;50.18;101276.75;5053519;28;20029;-61
2022/04/21 06:06:34;;;;;;;11.15;6.05;;;;;;;12.19;50.36;101273.41;5053652;28;20215;-61
2022/04/21 06:09:00;;;;;;;11.27;6.22;;;;;;;12.26;49.60;101271.72;5053358;28;20433;-61
2022/04/21 06:11:25;;;;;;;9.15;6.47;;;;;;;12.37;49.19;101271.81;5053630;28;20029;-61
2022/04/21 06:13:51;;;;;;;11.93;5.57;;;;;;;12.48;48.88;101265.75;5053667;28;20478;-61
2022/04/21 06:16:19;;;;;;;9.70;6.03;;;;;;;12.64;48.61;101266.78;5054408;28;20040;-61
2022/04/21 06:18:45;;;;;;;9.35;6.13;;;;;;;12.77;47.39;101267.78;5055004;28;20052;-61
2022/04/21 06:21:11;;;;;;;8.98;6.15;;;;;;;12.89;48.00;101261.69;5053622;28;20531;-61
2022/04/21 06:23:36;;;;;;;8.13;6.15;;;;;;;13.08;47.49;101268.91;5053455;28;20100;-61
2022/04/21 06:26:03;;;;;;;11.55;5.70;;;;;;;13.20;47.42;101262.81;5053149;28;20466;-61
2022/04/21 06:28:29;;;;;;;11.15;6.03;;;;;;;13.20;46.64;101265.47;5053094;28;20021;-61
2022/04/21 06:30:56;;;;;;;11.73;6.47;;;;;;;13.27;46.82;101265.56;5052954;28;20452;-61
2022/04/21 06:33:21;;;;;;;10.75;6.20;;;;;;;13.38;46.93;101251.44;5052719;28;20021;-60
2022/04/21 06:35:47;;;;;;;10.95;6.30;;;;;;;13.48;45.79;101262.09;5052495;28;20045;-61
2022/04/21 06:38:13;;;;;;;13.55;6.15;;;;;;;13.61;45.51;101257.75;5052815;28;20032;-61
2022/04/21 06:40:38;;;;;;;10.63;5.95;;;;;;;13.79;45.20;101262.28;5052626;28;20052;-61
2022/04/21 06:48:01;;;;;;;10.63;5.90;;;;;;;14.01;44.91;101252.63;5052929;28;20024;-61
2022/04/21 06:48:40;;;;;;;13.27;5.75;;;;;;;14.52;43.53;101251.00;5052994;28;20123;-61
2022/04/21 06:51:05;;;;;;;10.32;6.07;;;;;;;14.82;43.32;101255.44;5052467;28;20478;-61
2022/04/21 06:53:34;;;;;;;10.02;6.47;;;;;;;15.05;42.85;101252.75;5052980;28;20063;-61
2022/04/21 06:56:04;;;;;;;15.55;5.93;;;;;;;15.26;41.52;101255.38;5052620;28;20025;-61
2022/04/21 06:58:29;;;;;;;8.68;5.53;;;;;;;15.34;40.62;101250.06;5034685;28;20107;-61
2022/04/21 07:00:54;;;;;;;7.95;5.70;;;;;;;15.48;40.76;101242.91;5052604;28;20116;-61
2022/04/21 07:03:20;;;;;;;8.40;5.53;;;;;;;15.59;40.39;101245.53;5052624;28;20083;-62
2022/04/21 07:05:46;;;;;;;7.35;5.82;;;;;;;15.75;39.93;101244.59;5052468;28;20021;-62
2022/04/21 07:08:11;;;;;;;7.95;5.63;;;;;;;15.99;40.21;101240.94;5052693;28;20053;-61
2022/04/21 07:10:37;;;;;;;10.68;6.43;;;;;;;16.13;39.54;101242.66;5052549;28;20528;-61
2022/04/21 07:13:11;;;;;;;10.05;6.80;;;;;;;16.21;40.10;101239.03;5052449;28;20063;-61
2022/04/21 07:15:38;;;;;;;9.02;5.65;;;;;;;16.49;39.43;101241.53;5052703;28;20132;-61
2022/04/21 07:18:04;;;;;;;11.10;6.38;;;;;;;16.71;39.54;101245.81;5052397;28;20033;-61
2022/04/21 07:20:35;;;;;;;7.20;5.72;;;;;;;16.99;39.35;101246.47;5052313;28;20473;-62
2022/04/21 07:23:04;;;;;;;10.80;6.07;;;;;;;17.10;38.72;101249.06;5052084;28;20527;-61
2022/04/21 07:25:29;;;;;;;11.48;6.18;;;;;;;17.24;38.78;101240.91;5052427;28;20494;-61
2022/04/21 07:27:55;;;;;;;9.60;6.18;;;;;;;17.26;38.14;101249.78;5034375;28;20107;-61
2022/04/21 07:30:21;;;;;;;9.90;5.70;;;;;;;17.41;37.50;101254.06;5052411;28;20028;-61
2022/04/21 07:32:47;;;;;;;9.02;5.68;;;;;;;17.47;37.20;101254.00;5052318;28;20386;-62
2022/04/21 07:35:13;;;;;;;7.97;5.63;;;;;;;17.60;37.10;101260.09;5055635;28;20064;-62
2022/04/21 07:37:39;;;;;;;11.68;5.43;;;;;;;17.83;36.60;101257.19;5056481;28;20382;-62
2022/04/21 07:40:05;;;;;;;10.48;6.32;;;;;;;17.78;36.97;101259.94;5056536;28;20029;-62
2022/04/21 07:42:31;;;;;;;12.52;6.10;;;;;;;18.05;36.38;101253.31;5038560;28;20017;-62
2022/04/21 07:45:00;;;;;;;9.38;5.50;;;;;;;18.12;36.09;101256.81;5055934;28;20471;-62
2022/04/21 07:47:25;;;;;;;10.68;5.82;;;;;;;18.20;35.98;101253.13;5056271;28;20107;-61
2022/04/21 07:49:51;;;;;;;11.55;5.53;;;;;;;18.36;36.21;101248.41;5056114;28;20104;-62
2022/04/21 07:55:19;;;;;;;15.40;5.38;;;;;;;18.70;34.45;101266.66;5056760;28;20124;-61
2022/04/21 07:57:46;;;;;;;8.55;5.20;;;;;;;18.79;34.77;101254.91;5056291;28;20029;-62
2022/04/21 08:00:14;;;;;;;9.25;4.80;;;;;;;18.83;34.27;101251.28;5055874;28;20467;-62
2022/04/21 08:02:44;;;;;;;9.23;4.65;;;;;;;18.95;34.73;101262.66;5056083;28;20079;-62
2022/04/21 08:05:12;;;;;;;9.70;4.90;;;;;;;19.01;33.89;101250.97;5055840;28;20060;-61
2022/04/21 08:07:41;;;;;;;9.73;5.18;;;;;;;18.96;34.79;101252.84;5037918;28;20454;-61
2022/04/21 08:10:10;;;;;;;13.48;5.07;;;;;;;18.92;34.86;101254.69;5055731;28;20428;-61
2022/04/21 08:12:46;;;;;;;8.73;5.07;;;;;;;18.97;34.93;101251.91;5055681;28;20028;-62
2022/04/21 08:15:21;;;;;;;8.27;4.85;;;;;;;19.15;35.01;101253.41;5055614;28;20029;-61
2022/04/21 08:17:47;;;;;;;9.27;4.63;;;;;;;19.27;34.36;101250.47;5055531;28;20489;-61
2022/04/21 08:20:14;;;;;;;11.15;5.03;;;;;;;19.34;34.73;101261.97;5055849;28;20025;-62
2022/04/21 08:22:39;;;;;;;8.95;4.80;;;;;;;19.41;32.93;101258.28;5055644;28;20093;-61
2022/04/21 08:33:19;;;;;;;9.32;4.90;;;;;;;19.85;34.91;101261.91;5058585;28;20033;-61
2022/04/21 08:35:46;;;;;;;9.52;4.80;;;;;;;20.02;34.12;101259.75;5057520;28;20049;-62
2022/04/21 08:38:12;;;;;;;8.32;5.15;;;;;;;19.89;34.13;101253.75;5056148;28;20028;-62
2022/04/21 08:40:41;;;;;;;9.65;5.00;;;;;;;20.10;33.54;101262.25;5055673;28;20052;-62
2022/04/21 08:43:16;;;;;;;11.65;5.38;;;;;;;20.20;33.17;101262.00;5055158;28;20112;-62
2022/04/21 08:45:45;;;;;;;9.02;4.90;;;;;;;20.23;33.85;101253.03;5055192;28;20089;-62
2022/04/21 08:48:12;;;;;;;7.68;4.90;;;;;;;20.30;33.00;101241.25;5055198;28;20033;-62
2022/04/21 08:50:39;;;;;;;10.48;4.68;;;;;;;20.43;33.06;101247.19;5055018;28;20032;-62
2022/04/21 08:53:06;;;;;;;7.43;4.80;;;;;;;20.52;32.61;101236.28;5054958;28;20036;-62
2022/04/21 08:55:32;;;;;;;9.32;4.70;;;;;;;20.44;32.83;101238.22;5054977;28;20029;-62
2022/04/21 08:57:58;;;;;;;12.00;4.53;;;;;;;20.51;32.28;101223.75;5055001;28;20154;-61
2022/04/21 09:00:24;;;;;;;10.52;4.22;;;;;;;20.51;31.77;101239.84;5054941;28;20100;-62
2022/04/21 09:02:50;;;;;;;15.13;4.50;;;;;;;20.68;32.25;101232.25;5055009;28;20486;-62
2022/04/21 09:05:16;;;;;;;8.82;4.45;;;;;;;21.04;31.20;101226.88;5054706;28;20467;-61
2022/04/21 09:07:47;;;;;;;8.52;4.22;;;;;;;21.16;30.40;101225.69;5036859;28;20029;-62
2022/04/21 09:10:13;;;;;;;8.10;4.00;;;;;;;21.19;29.72;101218.41;5054711;28;20033;-61
2022/04/21 09:12:46;;;;;;;6.38;3.80;;;;;;;21.10;30.40;101233.91;5054797;28;20031;-61
2022/04/21 09:15:15;;;;;;;;;;;;;;;21.57;31.37;101229.94;5054979;28;20120;-62
2022/04/21 09:17:57;;;;;;;11.27;5.43;;;;;;;21.92;30.14;101233.38;5054629;28;19913;-62
2022/04/21 09:20:26;;;;;;;8.50;3.90;;;;;;;22.10;29.70;101232.84;5054677;28;20029;-62
2022/04/21 09:22:54;;;;;;;8.68;3.95;;;;;;;22.31;28.96;101231.34;5054692;28;20398;-62
2022/04/21 09:25:50;;;;;;;10.05;4.40;;;;;;;22.38;28.35;101234.69;5054395;28;20043;-62
2022/04/21 09:28:26;;;;;;;7.10;4.03;;;;;;;21.95;27.86;101227.94;5054388;28;20056;-62
2022/04/21 09:30:55;;;;;;;9.43;3.75;;;;;;;22.25;27.87;101224.31;5054510;28;20525;-62
2022/04/21 09:33:34;;;;;;;9.27;4.15;;;;;;;22.25;28.13;101224.31;5054165;28;20474;-62
2022/04/21 09:36:05;;;;;;;8.82;4.35;;;;;;;22.40;28.07;101220.25;5069915;28;20047;-62
2022/04/21 09:38:31;;;;;;;5.90;4.40;;;;;;;22.50;27.79;101218.16;5074403;28;20028;-62
2022/04/21 09:41:08;;;;;;;6.10;3.88;;;;;;;22.45;27.62;101209.34;5074212;28;20544;-62
2022/04/21 09:43:35;;;;;;;12.40;4.00;;;;;;;22.46;26.60;101221.88;5074075;28;20048;-62
2022/04/21 09:46:18;;;;;;;8.27;3.63;;;;;;;22.39;25.98;101217.59;5074170;28;20029;-62
2022/04/21 09:48:46;;;;;;;7.80;3.70;;;;;;;22.57;26.30;101222.41;5073992;28;20021;-62
2022/04/21 09:51:14;;;;;;;5.78;3.60;;;;;;;22.48;26.16;101222.69;5073915;28;20462;-62
2022/04/21 09:54:02;;;;;;;9.45;3.53;;;;;;;22.47;25.51;101208.34;5073870;28;20074;-61
2022/04/21 09:56:41;;;;;;;4.30;2.85;;;;;;;22.74;23.58;101216.47;5073522;28;20032;-62
2022/04/21 09:59:11;;;;;;;6.47;3.35;;;;;;;23.08;23.50;101207.22;5055838;28;20074;-62
2022/04/21 10:01:39;;;;;;;6.57;3.40;;;;;;;23.36;23.12;101197.22;5073785;28;20024;-61
2022/04/21 10:04:13;;;;;;;5.80;3.08;;;;;;;23.38;23.08;101200.75;5073852;28;20052;-62
2022/04/21 10:06:40;;;;;;;7.30;2.90;;;;;;;23.37;22.23;101190.00;5073708;28;20067;-62
2022/04/21 10:09:07;;;;;;;4.88;2.90;;;;;;;23.28;23.05;101190.34;5073625;28;20445;-62
2022/04/21 10:11:32;;;;;;;7.22;2.72;;;;;;;23.27;21.35;101194.84;5073541;28;20461;-62
2022/04/21 10:13:58;;;;;;;6.72;3.17;;;;;;;23.44;22.08;101183.44;5073530;28;20047;-62
2022/04/21 10:16:26;;;;;;;5.05;2.72;;;;;;;23.58;20.95;101177.53;5073747;28;20056;-62
2022/04/21 10:18:54;;;;;;;4.57;2.60;;;;;;;23.44;20.33;101173.53;5073635;28;20374;-62
2022/04/21 10:21:59;;;;;;;4.43;2.50;;;;;;;23.35;19.96;101184.66;5075357;28;20074;-62
2022/04/21 10:24:27;;;;;;;4.10;2.58;;;;;;;23.29;20.70;101170.50;5055746;28;20115;-61
2022/04/21 10:26:54;;;;;;;4.80;2.60;;;;;;;23.41;20.99;101179.03;5073276;28;20039;-62
2022/04/21 10:29:22;;;;;;;6.45;2.75;;;;;;;23.22;21.08;101170.75;5073281;28;20094;-61
2022/04/21 10:31:55;;;;;;;4.05;2.58;;;;;;;23.30;20.92;101167.78;5072904;28;20020;-62
2022/04/21 10:34:31;;;;;;;3.20;2.30;;;;;;;23.38;20.50;101162.06;5072591;28;20039;-62
2022/04/21 10:37:13;;;;;;;4.13;2.70;;;;;;;23.62;21.38;101171.06;5073088;28;20436;-62
2022/04/21 10:39:40;;;;;;;6.43;2.40;;;;;;;23.82;20.15;101171.22;5072944;28;20024;-62
2022/04/21 10:42:14;;;;;;;8.25;2.75;;;;;;;24.07;21.21;101157.63;5072909;28;20519;-63
2022/04/21 10:44:53;;;;;;;5.20;2.60;;;;;;;24.30;19.26;101158.50;5073243;28;20044;-62
2022/04/21 10:47:31;;;;;;;4.13;2.50;;;;;;;24.60;20.54;101159.97;5073002;28;20525;-62
2022/04/21 10:50:19;;;;;;;4.93;2.70;;;;;;;24.56;20.35;101147.53;5072997;28;20027;-62
2022/04/21 10:58:34;;;;;;;9.35;2.92;;;;;;;25.05;20.59;101147.19;5072718;28;20409;-60
2022/04/21 11:01:28;;;;;;;8.73;2.80;;;;;;;25.13;19.90;101148.63;5072912;28;20024;-60
2022/04/21 11:04:27;;;;;;;5.05;2.65;;;;;;;25.17;19.50;101143.97;5070204;28;20109;-61
2022/04/21 11:07:05;;;;;;;9.23;2.75;;;;;;;25.15;20.12;101138.66;5072563;28;20131;-60
2022/04/21 11:09:50;;;;;;;9.65;2.78;;;;;;;25.34;18.58;101137.78;5071761;28;20033;-60
2022/04/21 11:12:37;;;;;;;5.70;2.45;;;;;;;25.23;19.09;101133.78;5072582;28;20469;-59
2022/04/21 11:15:36;;;;;;;4.80;2.60;;;;;;;25.18;18.02;101135.81;5072269;28;20489;-60
2022/04/21 11:18:10;;;;;;;6.50;2.70;;;;;;;25.01;18.37;101134.75;5054146;28;20028;-60
2022/04/21 11:21:14;;;;;;;7.65;2.55;;;;;;;25.16;19.39;101126.00;5072601;28;20024;-59
2022/04/21 11:23:39;;;;;;;4.70;2.70;;;;;;;25.30;18.40;101128.06;5067428;28;20048;-60
2022/04/21 11:26:09;;;;;;;6.40;2.50;;;;;;;25.28;18.27;101120.03;5072447;28;20028;-60
2022/04/21 11:28:34;;;;;;;4.15;2.40;;;;;;;25.27;17.47;101111.97;5072329;28;20279;-60
2022/04/21 11:31:02;;;;;;;3.92;2.60;;;;;;;25.22;18.63;101098.66;5072241;28;20031;-60
2022/04/21 11:33:28;;;;;;;4.53;2.40;;;;;;;25.16;16.90;101110.66;5072547;28;20063;-60
2022/04/21 11:36:32;;;;;;;6.10;2.50;;;;;;;25.22;17.97;101099.56;5072134;28;20053;-60
2022/04/21 11:38:57;;;;;;;5.53;2.55;;;;;;;25.32;17.32;101101.84;5071898;28;20053;-60
2022/04/21 11:41:25;;;;;;;6.95;2.90;;;;;;;25.45;19.51;101084.06;5054165;28;20021;-60
2022/04/21 11:43:50;;;;;;;8.80;3.33;;;;;;;25.44;19.52;101082.31;5072135;28;20071;-60
2022/04/21 11:46:19;;;;;;;5.30;2.92;;;;;;;25.59;19.74;101094.22;5072484;28;20036;-60
2022/04/21 11:48:44;;;;;;;4.82;2.90;;;;;;;25.47;19.65;101088.44;5072212;28;20024;-60
2022/04/21 11:51:12;;;;;;;9.48;2.97;;;;;;;25.64;18.28;101095.75;5072064;28;20025;-60
2022/04/21 11:53:42;;;;;;;5.55;2.78;;;;;;;25.43;17.95;101097.66;5071855;28;20458;-60
2022/04/21 11:56:10;;;;;;;8.40;2.92;;;;;;;25.26;18.63;101094.00;5072268;28;20031;-60
2022/04/21 11:58:38;;;;;;;5.95;2.78;;;;;;;25.42;17.33;101084.22;5072087;28;20063;-60
2022/04/21 12:06:47;;;;;;;6.32;2.65;;;;;;;25.57;18.78;101079.91;5072577;28;20120;-62
2022/04/21 12:09:15;;;;;;;4.95;2.80;;;;;;;25.48;18.85;101078.50;5071910;28;20036;-62
2022/04/21 12:11:41;;;;;;;8.40;2.70;;;;;;;25.42;18.94;101078.78;5072272;28;20056;-62
2022/04/21 12:14:07;;;;;;;6.32;2.83;;;;;;;25.53;18.98;101071.06;5053876;28;20078;-62
2022/04/21 12:16:46;;;;;;;4.72;2.95;;;;;;;25.68;18.58;101074.84;5071993;28;20102;-63
2022/04/21 12:19:37;;;;;;;8.80;2.60;;;;;;;25.68;17.54;101070.31;5072401;28;20027;-62
2022/04/21 12:22:16;;;;;;;7.60;2.72;;;;;;;25.20;17.85;101074.41;5075755;28;20032;-62
2022/04/21 12:24:41;;;;;;;4.43;2.70;;;;;;;25.19;18.47;101067.25;5075905;28;20111;-63
2022/04/21 12:27:14;;;;;;;8.82;3.00;;;;;;;25.39;19.32;101062.69;5075490;28;20109;-61
2022/04/21 12:29:58;;;;;;;6.93;2.50;;;;;;;25.59;18.55;101065.34;5075728;28;20021;-60
2022/04/21 12:32:49;;;;;;;5.70;2.95;;;;;;;25.30;18.03;101055.91;5075508;28;20099;-60
2022/04/21 12:35:15;;;;;;;5.18;2.70;;;;;;;24.93;18.00;101060.28;4993712;28;20103;-60
2022/04/21 12:37:40;;;;;;;5.38;2.85;;;;;;;24.54;19.37;101059.34;4993627;28;20037;-61
2022/04/21 12:40:08;;;;;;;5.07;2.60;;;;;;;23.92;20.98;101061.94;4993408;28;20035;-60
2022/04/21 12:42:34;;;;;;;6.00;2.88;;;;;;;23.45;21.50;101055.72;4993407;28;20266;-60
2022/04/21 12:45:00;;;;;;;5.70;2.70;;;;;;;23.38;21.67;101048.81;4993015;28;20037;-59
2022/04/21 12:47:26;;;;;;;8.07;2.70;;;;;;;22.98;21.85;101050.34;4992866;28;20553;-60
2022/04/21 12:50:06;;;;;;;7.55;3.00;;;;;;;22.91;22.18;101048.81;4992740;28;20030;-60
2022/04/21 12:52:41;;;;;;;10.23;2.83;;;;;;;23.03;22.73;101047.47;4993520;28;20125;-62
2022/04/21 12:55:27;;;;;;;9.25;3.03;;;;;;;23.11;21.29;101029.19;4993565;28;20132;-62